createdAt,value
2023-01-17T00:01:19.480Z,90478.38
2023-01-17T00:04:04.788Z,90481.22
2023-01-17T00:06:50.103Z,90489.31
2023-01-17T00:09:35.771Z,90483.13
2023-01-17T00:12:03.316Z,90484.69
2023-01-17T00:14:29.977Z,90476.81
2023-01-17T00:16:56.728Z,90467.81
2023-01-17T00:19:41.999Z,90473.97
2023-01-17T00:22:36.416Z,90486.19
2023-01-17T00:25:21.888Z,90486.50
2023-01-17T00:27:48.453Z,90500.72
2023-01-17T00:30:15.080Z,90476.88
2023-01-17T00:32:41.715Z,90483.53
2023-01-17T00:35:08.531Z,90496.97
2023-01-17T00:37:35.361Z,90478.31
2023-01-17T00:40:02.268Z,90483.59
2023-01-17T00:42:28.832Z,90490.34
2023-01-17T00:45:15.004Z,90477.72
2023-01-17T00:48:02.769Z,90472.06
2023-01-17T00:50:48.301Z,90477.25
2023-01-17T00:53:33.861Z,90466.44
2023-01-17T00:56:23.128Z,90469.06
2023-01-17T00:59:08.750Z,90462.88
2023-01-17T01:01:54.156Z,90422.47
2023-01-17T01:04:39.454Z,90455.84
2023-01-17T01:07:25.146Z,90448.84
2023-01-17T01:10:10.370Z,90446.22
2023-01-17T01:12:55.739Z,90454.81
2023-01-17T01:15:40.966Z,90446.69
2023-01-17T01:18:28.670Z,90442.22
2023-01-17T01:21:14.029Z,90439.97
2023-01-17T01:23:59.400Z,90441.78
2023-01-17T01:26:44.570Z,90439.25
2023-01-17T01:29:29.563Z,90438.81
2023-01-17T01:32:14.902Z,90444.09
2023-01-17T01:34:41.515Z,90433.34
2023-01-17T01:37:08.196Z,90425.81
2023-01-17T01:39:34.906Z,90434.91
2023-01-17T01:42:01.552Z,90431.59
2023-01-17T01:44:50.132Z,90416.22
2023-01-17T01:47:30.892Z,90416.34
2023-01-17T01:50:02.228Z,90418.22
2023-01-17T01:52:32.576Z,90423.13
2023-01-17T01:55:05.258Z,90407.47
2023-01-17T01:57:38.095Z,90408.22
2023-01-17T02:00:10.281Z,90390.41
2023-01-17T02:02:37.806Z,90391.91
2023-01-17T02:05:05.015Z,90400.44
2023-01-17T02:07:43.236Z,90390.00
2023-01-17T02:10:10.530Z,90395.22
2023-01-17T02:12:37.637Z,90403.47
2023-01-17T02:15:07.646Z,90405.75
2023-01-17T02:17:37.473Z,90395.75
2023-01-17T02:20:13.359Z,90381.56
2023-01-17T02:22:58.848Z,90379.72
2023-01-17T02:25:34.668Z,90378.63
2023-01-17T02:28:19.726Z,90380.06
2023-01-17T02:30:50.272Z,90388.22
2023-01-17T02:33:19.743Z,90400.22
2023-01-17T02:35:58.573Z,90384.88
2023-01-17T02:38:51.230Z,90398.75
2023-01-17T02:41:29.727Z,90379.34
2023-01-17T02:43:56.444Z,90371.16
2023-01-17T02:46:23.216Z,90349.47
2023-01-17T02:48:51.686Z,90377.16
2023-01-17T02:51:40.577Z,90374.94
2023-01-17T02:54:32.731Z,90376.44
2023-01-17T02:57:26.807Z,90390.56
2023-01-17T03:00:01.703Z,90370.50
2023-01-17T03:02:41.496Z,90380.13
2023-01-17T03:05:14.422Z,90368.22
2023-01-17T03:07:44.404Z,90378.38
2023-01-17T03:10:14.919Z,90376.16
2023-01-17T03:12:42.214Z,90376.44
2023-01-17T03:15:14.701Z,90364.19
2023-01-17T03:17:47.739Z,90356.00
2023-01-17T03:20:14.592Z,90363.84
2023-01-17T03:22:41.445Z,90368.66
2023-01-17T03:25:08.640Z,90376.09
2023-01-17T03:27:35.414Z,90366.06
2023-01-17T03:30:02.157Z,90360.50
2023-01-17T03:32:28.909Z,90352.69
2023-01-17T03:34:55.797Z,90354.19
2023-01-17T03:37:22.602Z,90352.34
2023-01-17T03:39:49.658Z,90348.97
2023-01-17T03:42:16.366Z,90357.56
2023-01-17T03:44:43.070Z,90354.94
2023-01-17T03:47:12.321Z,90352.66
2023-01-17T03:49:40.047Z,90369.81
2023-01-17T03:52:07.491Z,90359.75
2023-01-17T03:54:34.395Z,90363.16
2023-01-17T03:57:01.094Z,90366.88
2023-01-17T03:59:28.074Z,90355.28
2023-01-17T04:01:54.836Z,90361.22
2023-01-17T04:04:21.665Z,90372.41
2023-01-17T04:06:48.395Z,90370.56
2023-01-17T04:09:15.195Z,90377.97
2023-01-17T04:11:42.130Z,90364.16
2023-01-17T04:14:08.852Z,90380.56
2023-01-17T04:16:37.588Z,90395.84
2023-01-17T04:19:04.335Z,90382.38
2023-01-17T04:21:31.156Z,90395.78
2023-01-17T04:23:57.858Z,90403.56
2023-01-17T04:26:24.503Z,90409.13
2023-01-17T04:28:51.367Z,90392.41
2023-01-17T04:31:18.047Z,90405.41
2023-01-17T04:33:44.740Z,90392.00
2023-01-17T04:36:11.464Z,90401.63
2023-01-17T04:38:38.114Z,90399.75
2023-01-17T04:41:05.000Z,90393.75
2023-01-17T04:43:31.685Z,90401.59
2023-01-17T04:45:59.085Z,90397.84
2023-01-17T04:48:27.641Z,90387.78
2023-01-17T04:51:04.833Z,90385.91
2023-01-17T04:53:32.330Z,90379.22
2023-01-17T04:55:59.378Z,90370.25
2023-01-17T04:58:26.631Z,90393.03
2023-01-17T05:00:53.392Z,90394.47
2023-01-17T05:03:21.690Z,90399.31
2023-01-17T05:05:49.044Z,90405.00
2023-01-17T05:08:15.931Z,90400.13
2023-01-17T05:10:42.574Z,90412.81
2023-01-17T05:13:09.467Z,90413.97
2023-01-17T05:15:37.013Z,90423.31
2023-01-17T05:18:08.582Z,90424.00
2023-01-17T05:20:36.700Z,90432.59
2023-01-17T05:23:03.428Z,90447.09
2023-01-17T05:25:32.279Z,90450.06
2023-01-17T05:28:02.540Z,90431.47
2023-01-17T05:30:31.482Z,90435.94
2023-01-17T05:32:59.228Z,90440.38
2023-01-17T05:35:28.647Z,90437.38
2023-01-17T05:37:55.955Z,90413.53
2023-01-17T05:40:26.656Z,90428.41
2023-01-17T05:42:55.800Z,90409.44
2023-01-17T05:45:27.151Z,90430.59
2023-01-17T05:47:55.278Z,90411.16
2023-01-17T05:50:42.208Z,90441.88
2023-01-17T05:53:12.083Z,90431.41
2023-01-17T05:55:39.349Z,90423.63
2023-01-17T05:58:06.911Z,90415.78
2023-01-17T06:00:33.576Z,90423.25
2023-01-17T06:03:01.327Z,90427.00
2023-01-17T06:05:29.331Z,90427.03
2023-01-17T06:07:56.733Z,90437.44
2023-01-17T06:10:24.118Z,90421.16
2023-01-17T06:12:51.243Z,90429.31
2023-01-17T06:15:18.583Z,90424.13
2023-01-17T06:17:45.346Z,90416.28
2023-01-17T06:20:12.841Z,90418.13
2023-01-17T06:22:39.620Z,90417.41
2023-01-17T06:25:07.163Z,90427.94
2023-01-17T06:27:34.108Z,90429.03
2023-01-17T06:30:00.842Z,90439.13
2023-01-17T06:32:27.644Z,90447.72
2023-01-17T06:34:54.271Z,90454.13
2023-01-17T06:37:21.070Z,90436.25
2023-01-17T06:39:47.814Z,90437.72
2023-01-17T06:42:14.680Z,90445.16
2023-01-17T06:44:41.426Z,90435.44
2023-01-17T06:47:08.170Z,90428.75
2023-01-17T06:49:34.878Z,90426.53
2023-01-17T06:52:01.550Z,90438.13
2023-01-17T06:54:28.304Z,90440.00
2023-01-17T06:56:55.021Z,90452.31
2023-01-17T06:59:21.783Z,90442.59
2023-01-17T07:01:48.626Z,90456.44
2023-01-17T07:04:15.833Z,90454.19
2023-01-17T07:06:42.899Z,90451.63
2023-01-17T07:09:09.723Z,90441.56
2023-01-17T07:11:36.431Z,90454.22
2023-01-17T07:14:03.045Z,90448.22
2023-01-17T07:16:29.860Z,90445.97
2023-01-17T07:18:58.291Z,90445.25
2023-01-17T07:21:25.015Z,90448.22
2023-01-17T07:23:51.696Z,90447.81
2023-01-17T07:26:18.525Z,90455.25
2023-01-17T07:28:45.344Z,90453.44
2023-01-17T07:31:12.214Z,90446.03
2023-01-17T07:33:39.045Z,90441.53
2023-01-17T07:36:07.597Z,90444.16
2023-01-17T07:38:35.188Z,90455.34
2023-01-17T07:41:02.292Z,90446.00
2023-01-17T07:43:29.311Z,90457.94
2023-01-17T07:45:56.251Z,90454.97
2023-01-17T07:48:25.033Z,90443.06
2023-01-17T07:50:58.509Z,90446.81
2023-01-17T07:53:27.224Z,90447.91
2023-01-17T07:55:54.302Z,90445.31
2023-01-17T07:58:21.669Z,90440.81
2023-01-17T08:00:48.535Z,90412.50
2023-01-17T08:03:17.531Z,90420.72
2023-01-17T08:05:53.133Z,90435.69
2023-01-17T08:08:19.945Z,90429.69
2023-01-17T08:10:46.628Z,90432.69
2023-01-17T08:13:13.273Z,90438.66
2023-01-17T08:15:39.967Z,90430.81
2023-01-17T08:18:06.602Z,90434.94
2023-01-17T08:20:33.264Z,90425.22
2023-01-17T08:22:59.944Z,90420.75
2023-01-17T08:25:27.486Z,90448.34
2023-01-17T08:27:57.891Z,90443.47
2023-01-17T08:30:25.969Z,90444.59
2023-01-17T08:32:53.097Z,90450.97
2023-01-17T08:35:20.408Z,90447.22
2023-01-17T08:37:48.039Z,90444.59
2023-01-17T08:40:17.206Z,90426.28
2023-01-17T08:42:44.311Z,90424.84
2023-01-17T08:45:12.210Z,90428.91
2023-01-17T08:47:38.995Z,90415.81
2023-01-17T08:50:06.919Z,90434.13
2023-01-17T08:52:34.116Z,90455.84
2023-01-17T08:55:00.927Z,90464.78
2023-01-17T08:57:27.858Z,90446.84
2023-01-17T08:59:54.565Z,90467.75
2023-01-17T09:02:21.241Z,90450.97
2023-01-17T09:04:49.460Z,90473.72
2023-01-17T09:07:18.230Z,90453.59
2023-01-17T09:09:44.986Z,90461.06
2023-01-17T09:12:11.731Z,90463.31
2023-01-17T09:14:38.588Z,90473.00
2023-01-17T09:17:08.776Z,90464.44
2023-01-17T09:19:35.761Z,90461.06
2023-01-17T09:22:04.394Z,90465.16
2023-01-17T09:24:32.821Z,90457.34
2023-01-17T09:27:00.575Z,90437.19
2023-01-17T09:29:28.267Z,90448.41
2023-01-17T09:31:55.021Z,90450.63
2023-01-17T09:34:23.705Z,90442.41
2023-01-17T09:36:50.969Z,90443.16
2023-01-17T09:39:17.834Z,90435.31
2023-01-17T09:41:52.107Z,90434.94
2023-01-17T09:44:29.230Z,90430.09
2023-01-17T09:47:03.059Z,90433.47
2023-01-17T09:49:39.259Z,90441.66
2023-01-17T09:52:08.693Z,90441.66
2023-01-17T09:54:40.059Z,90433.47
2023-01-17T09:57:48.388Z,90456.22
2023-01-17T10:00:31.821Z,90447.25
2023-01-17T10:03:07.937Z,90439.41
2023-01-17T10:06:09.587Z,90431.56
2023-01-17T10:08:45.066Z,90438.31
2023-01-17T10:11:30.092Z,90430.84
2023-01-17T10:14:28.059Z,90432.69
2023-01-17T10:17:16.463Z,90431.19
2023-01-17T10:19:58.231Z,90442.41
2023-01-17T10:22:37.175Z,90421.88
2023-01-17T10:25:16.123Z,90429.34
2023-01-17T10:28:10.124Z,90414.78
2023-01-17T10:30:58.892Z,90416.25
2023-01-17T10:33:29.703Z,90429.34
2023-01-17T10:36:06.039Z,90425.56
2023-01-17T10:38:36.275Z,90425.94
2023-01-17T10:41:15.848Z,90416.19
2023-01-17T10:44:07.218Z,90421.41
2023-01-17T10:47:04.220Z,90396.00
2023-01-17T10:49:31.520Z,90413.94
2023-01-17T10:52:16.772Z,90413.94
2023-01-17T10:55:21.129Z,90397.13
2023-01-17T10:57:48.930Z,90402.00
2023-01-17T11:00:44.271Z,90393.00
2023-01-17T11:03:16.048Z,90395.22
2023-01-17T11:05:43.391Z,90406.09
2023-01-17T11:08:12.783Z,90416.97
2023-01-17T11:10:43.500Z,90407.22
2023-01-17T11:13:30.912Z,90395.94
2023-01-17T11:16:07.562Z,90398.94
2023-01-17T11:18:40.487Z,90401.13
2023-01-17T11:21:12.310Z,90417.97
2023-01-17T11:23:42.810Z,90392.53
2023-01-17T11:26:20.814Z,90392.16
2023-01-17T11:28:47.506Z,90398.88
2023-01-17T11:31:16.841Z,90389.13
2023-01-17T11:33:54.011Z,90386.91
2023-01-17T11:36:30.117Z,90394.38
2023-01-17T11:38:58.038Z,90394.38
2023-01-17T11:41:28.041Z,90390.22
2023-01-17T11:43:59.191Z,90400.66
2023-01-17T11:46:29.234Z,90398.09
2023-01-17T11:49:00.013Z,90396.59
2023-01-17T11:51:31.754Z,90388.69
2023-01-17T11:54:13.696Z,90403.66
2023-01-17T11:56:46.941Z,90391.38
2023-01-17T11:59:31.856Z,90389.13
2023-01-17T12:02:17.510Z,90383.50
2023-01-17T12:05:21.776Z,90387.94
2023-01-17T12:08:13.292Z,90392.84
2023-01-17T12:10:51.077Z,90378.66
2023-01-17T12:14:02.797Z,90388.78
2023-01-17T12:16:49.269Z,90394.78
2023-01-17T12:19:34.609Z,90383.94
2023-01-17T12:22:19.927Z,90377.91
2023-01-17T12:24:55.593Z,90372.63
2023-01-17T12:27:31.409Z,90378.25
2023-01-17T12:30:22.907Z,90379.00
2023-01-17T12:33:06.823Z,90375.94
2023-01-17T12:35:50.712Z,90363.59
2023-01-17T12:38:32.646Z,90370.31
2023-01-17T12:41:07.284Z,90374.13
2023-01-17T12:43:42.641Z,90374.13
2023-01-17T12:46:21.028Z,90368.47
2023-01-17T12:48:52.811Z,90362.06
2023-01-17T12:51:27.835Z,90356.88
2023-01-17T12:54:12.335Z,90363.69
2023-01-17T12:56:59.326Z,90365.56
2023-01-17T12:59:56.123Z,90356.16
2023-01-17T13:02:37.932Z,90363.66
2023-01-17T13:05:15.319Z,90366.59
2023-01-17T13:07:53.647Z,90385.38
2023-01-17T13:10:37.965Z,90365.13
2023-01-17T13:13:22.246Z,90362.88
2023-01-17T13:15:52.847Z,90370.34
2023-01-17T13:18:25.960Z,90361.38
2023-01-17T13:21:10.822Z,90355.75
2023-01-17T13:23:52.443Z,90359.09
2023-01-17T13:26:36.426Z,90362.78
2023-01-17T13:29:55.881Z,90371.81
2023-01-17T13:32:25.621Z,90378.16
2023-01-17T13:35:01.867Z,90370.69
2023-01-17T13:37:37.280Z,90382.34
2023-01-17T13:40:52.206Z,90380.78
2023-01-17T13:44:09.313Z,90379.31
2023-01-17T13:46:55.415Z,90381.59
2023-01-17T13:49:39.279Z,90384.56
2023-01-17T13:52:10.673Z,90380.03
2023-01-17T13:54:50.902Z,90378.56
2023-01-17T13:57:23.733Z,90380.38
2023-01-17T13:59:52.861Z,90385.25
2023-01-17T14:02:31.957Z,90376.25
2023-01-17T14:05:18.369Z,90368.72
2023-01-17T14:07:48.552Z,90373.56
2023-01-17T14:10:37.315Z,90373.22
2023-01-17T14:13:06.850Z,90352.25
2023-01-17T14:15:47.841Z,90338.50
2023-01-17T14:18:37.805Z,90359.69
2023-01-17T14:21:10.035Z,90384.03
2023-01-17T14:24:06.401Z,90373.56
2023-01-17T14:26:37.735Z,90370.22
2023-01-17T14:29:42.595Z,90376.97
2023-01-17T14:32:12.368Z,90375.41
2023-01-17T14:34:39.207Z,90382.19
2023-01-17T14:37:17.472Z,90390.44
2023-01-17T14:39:46.362Z,90387.81
2023-01-17T14:42:16.804Z,90393.09
2023-01-17T14:44:54.414Z,90375.63
2023-01-17T14:47:22.531Z,90398.75
2023-01-17T14:49:49.250Z,90401.75
2023-01-17T14:52:19.148Z,90395.03
2023-01-17T14:54:50.558Z,90394.69
2023-01-17T14:57:29.269Z,90387.16
2023-01-17T15:00:23.377Z,90395.81
2023-01-17T15:02:51.593Z,90400.69
2023-01-17T15:05:21.249Z,90392.41
2023-01-17T15:07:53.075Z,90383.75
2023-01-17T15:10:27.402Z,90388.63
2023-01-17T15:12:55.495Z,90392.81
2023-01-17T15:15:30.359Z,90396.50
2023-01-17T15:18:18.806Z,90404.00
2023-01-17T15:20:57.113Z,90394.28
2023-01-17T15:23:30.474Z,90411.50
2023-01-17T15:25:58.410Z,90398.03
2023-01-17T15:28:25.466Z,90405.16
2023-01-17T15:31:03.460Z,90410.75
2023-01-17T15:33:34.213Z,90408.50
2023-01-17T15:36:21.077Z,90404.38
2023-01-17T15:38:54.405Z,90412.28
2023-01-17T15:41:23.990Z,90407.00
2023-01-17T15:43:51.363Z,90405.94
2023-01-17T15:46:23.669Z,90405.50
2023-01-17T15:48:51.745Z,90402.91
2023-01-17T15:51:37.806Z,90397.31
2023-01-17T15:54:29.432Z,90403.00
2023-01-17T15:57:06.916Z,90395.06
2023-01-17T15:59:56.848Z,90401.75
2023-01-17T16:02:31.659Z,90388.31
2023-01-17T16:05:00.570Z,90392.41
2023-01-17T16:07:32.144Z,90402.50
2023-01-17T16:10:18.668Z,90402.19
2023-01-17T16:12:46.620Z,90391.28
2023-01-17T16:15:14.336Z,90405.16
2023-01-17T16:17:48.057Z,90401.41
2023-01-17T16:20:28.395Z,90394.69
2023-01-17T16:22:55.252Z,90401.09
2023-01-17T16:25:24.793Z,90409.31
2023-01-17T16:27:52.424Z,90398.84
2023-01-17T16:30:21.663Z,90407.88
2023-01-17T16:32:49.278Z,90416.84
2023-01-17T16:35:19.168Z,90416.47
2023-01-17T16:37:49.929Z,90411.94
2023-01-17T16:40:17.889Z,90415.69
2023-01-17T16:42:45.251Z,90418.31
2023-01-17T16:45:13.494Z,90399.97
2023-01-17T16:47:45.960Z,90413.06
2023-01-17T16:50:14.880Z,90407.06
2023-01-17T16:52:42.078Z,90413.09
2023-01-17T16:55:15.261Z,90417.53
2023-01-17T16:57:42.657Z,90408.56
2023-01-17T17:00:12.084Z,90418.25
2023-01-17T17:02:40.803Z,90408.97
2023-01-17T17:05:09.645Z,90420.16
2023-01-17T17:07:42.861Z,90417.97
2023-01-17T17:10:15.625Z,90410.88
2023-01-17T17:12:43.204Z,90400.00
2023-01-17T17:15:11.615Z,90407.13
2023-01-17T17:17:40.586Z,90403.38
2023-01-17T17:20:11.759Z,90404.09
2023-01-17T17:22:39.413Z,90389.84
2023-01-17T17:25:07.005Z,90397.75
2023-01-17T17:27:33.623Z,90392.91
2023-01-17T17:30:00.335Z,90399.22
2023-01-17T17:32:27.029Z,90401.41
2023-01-17T17:34:53.785Z,90401.81
2023-01-17T17:37:22.501Z,90404.44
2023-01-17T17:39:49.510Z,90389.81
2023-01-17T17:42:16.249Z,90393.19
2023-01-17T17:44:42.934Z,90407.81
2023-01-17T17:47:12.870Z,90385.34
2023-01-17T17:49:40.008Z,90393.53
2023-01-17T17:52:08.478Z,90401.06
2023-01-17T17:54:35.718Z,90404.84
2023-01-17T17:57:02.464Z,90411.56
2023-01-17T17:59:30.004Z,90389.94
2023-01-17T18:01:58.881Z,90398.78
2023-01-17T18:04:26.096Z,90413.03
2023-01-17T18:07:00.167Z,90420.50
2023-01-17T18:09:26.930Z,90417.13
2023-01-17T18:11:55.203Z,90412.22
2023-01-17T18:14:24.030Z,90406.28
2023-01-17T18:16:51.120Z,90404.38
2023-01-17T18:19:23.186Z,90415.97
2023-01-17T18:21:51.453Z,90409.25
2023-01-17T18:24:21.198Z,90413.72
2023-01-17T18:26:57.294Z,90422.34
2023-01-17T18:29:25.517Z,90409.59
2023-01-17T18:31:53.595Z,90412.59
2023-01-17T18:34:27.115Z,90424.19
2023-01-17T18:36:54.238Z,90401.69
2023-01-17T18:39:24.808Z,90414.44
2023-01-17T18:41:52.311Z,90409.97
2023-01-17T18:44:22.325Z,90417.44
2023-01-17T18:46:54.165Z,90408.09
2023-01-17T18:49:21.852Z,90416.78
2023-01-17T18:51:51.897Z,90419.00
2023-01-17T18:54:20.412Z,90414.13
2023-01-17T18:56:47.188Z,90397.34
2023-01-17T18:59:16.060Z,90419.03
2023-01-17T19:01:43.858Z,90412.28
2023-01-17T19:04:12.767Z,90403.00
2023-01-17T19:06:41.938Z,90413.09
2023-01-17T19:09:10.527Z,90399.59
2023-01-17T19:11:37.430Z,90407.06
2023-01-17T19:14:05.539Z,90406.38
2023-01-17T19:16:35.565Z,90402.69
2023-01-17T19:19:07.148Z,90405.66
2023-01-17T19:21:34.409Z,90399.28
2023-01-17T19:24:01.513Z,90396.66
2023-01-17T19:26:28.892Z,90387.31
2023-01-17T19:29:03.837Z,90398.59
2023-01-17T19:31:39.826Z,90387.75
2023-01-17T19:34:06.549Z,90392.22
2023-01-17T19:36:36.179Z,90392.22
2023-01-17T19:39:06.709Z,90399.69
2023-01-17T19:41:35.981Z,90395.94
2023-01-17T19:44:06.508Z,90395.19
2023-01-17T19:46:34.404Z,90401.88
2023-01-17T19:49:01.605Z,90401.53
2023-01-17T19:51:28.861Z,90389.94
2023-01-17T19:53:56.594Z,90389.13
2023-01-17T19:56:25.737Z,90388.03
2023-01-17T19:58:52.492Z,90385.06
2023-01-17T20:01:27.785Z,90372.69
2023-01-17T20:03:57.475Z,90380.22
2023-01-17T20:06:35.058Z,90388.78
2023-01-17T20:09:02.396Z,90365.09
2023-01-17T20:11:29.203Z,90380.78
2023-01-17T20:13:57.990Z,90381.94
2023-01-17T20:16:26.664Z,90381.22
2023-01-17T20:18:53.455Z,90390.91
2023-01-17T20:21:24.786Z,90368.06
2023-01-17T20:23:53.242Z,90376.69
2023-01-17T20:26:23.266Z,90360.59
2023-01-17T20:28:54.696Z,90358.34
2023-01-17T20:31:23.390Z,90364.00
2023-01-17T20:33:50.838Z,90372.56
2023-01-17T20:36:19.467Z,90366.97
2023-01-17T20:38:46.862Z,90368.81
2023-01-17T20:41:15.528Z,90372.53
2023-01-17T20:43:43.384Z,90372.19
2023-01-17T20:46:10.495Z,90369.56
2023-01-17T20:48:43.316Z,90367.25
2023-01-17T20:51:11.089Z,90369.94
2023-01-17T20:53:39.235Z,90369.16
2023-01-17T20:56:08.035Z,90357.59
2023-01-17T20:58:35.453Z,90374.81
2023-01-17T21:01:02.765Z,90349.38
2023-01-17T21:03:29.610Z,90375.47
2023-01-17T21:06:05.036Z,90385.22
2023-01-17T21:08:33.985Z,90376.19
2023-01-17T21:11:01.130Z,90384.09
2023-01-17T21:13:28.137Z,90373.94
2023-01-17T21:15:54.947Z,90383.66
2023-01-17T21:18:23.648Z,90370.59
2023-01-17T21:20:50.789Z,90379.19
2023-01-17T21:23:22.843Z,90374.66
2023-01-17T21:25:54.793Z,90379.16
2023-01-17T21:28:23.708Z,90381.34
2023-01-17T21:30:50.926Z,90399.38
2023-01-17T21:33:18.871Z,90401.19
2023-01-17T21:35:45.973Z,90381.31
2023-01-17T21:38:13.932Z,90376.16
2023-01-17T21:40:41.822Z,90395.97
2023-01-17T21:43:08.834Z,90393.28
2023-01-17T21:45:39.872Z,90381.31
2023-01-17T21:48:08.170Z,90391.81
2023-01-17T21:50:34.846Z,90368.97
2023-01-17T21:53:03.179Z,90399.75
2023-01-17T21:55:48.867Z,90400.50
2023-01-17T21:58:35.589Z,90395.22
2023-01-17T22:01:15.968Z,90407.25
2023-01-17T22:03:43.562Z,90398.28
2023-01-17T22:06:10.374Z,90386.63
2023-01-17T22:08:37.979Z,90406.09
2023-01-17T22:11:07.495Z,90406.44
2023-01-17T22:13:35.662Z,90400.16
2023-01-17T22:16:04.854Z,90406.13
2023-01-17T22:18:35.983Z,90394.97
2023-01-17T22:21:08.202Z,90377.75
2023-01-17T22:23:35.773Z,90378.47
2023-01-17T22:26:05.299Z,90391.56
2023-01-17T22:28:33.287Z,90375.47
2023-01-17T22:31:11.180Z,90389.34
2023-01-17T22:33:39.362Z,90373.63
2023-01-17T22:36:07.035Z,90372.09
2023-01-17T22:38:34.138Z,90380.72
2023-01-17T22:41:09.932Z,90383.69
2023-01-17T22:43:41.238Z,90383.72
2023-01-17T22:46:10.022Z,90380.38
2023-01-17T22:48:37.936Z,90377.78
2023-01-17T22:51:06.404Z,90404.81
2023-01-17T22:53:33.561Z,90396.50
2023-01-17T22:56:08.843Z,90390.19
2023-01-17T22:58:36.090Z,90373.75
2023-01-17T23:01:08.108Z,90385.75
2023-01-17T23:03:36.632Z,90383.50
2023-01-17T23:06:16.779Z,90353.94
2023-01-17T23:08:45.774Z,90374.09
2023-01-17T23:11:39.249Z,90383.44
2023-01-17T23:14:24.634Z,90380.09
2023-01-17T23:17:10.037Z,90373.34
2023-01-17T23:19:47.851Z,90373.00
2023-01-17T23:22:20.494Z,90360.97
2023-01-17T23:24:55.838Z,90356.94
2023-01-17T23:27:50.435Z,90369.69
2023-01-17T23:30:20.709Z,90342.72
2023-01-17T23:32:53.397Z,90353.59
2023-01-17T23:35:23.171Z,90360.75
2023-01-17T23:38:08.550Z,90353.28
2023-01-17T23:40:36.036Z,90357.78
2023-01-17T23:43:21.941Z,90340.22
2023-01-17T23:45:50.000Z,90371.66
2023-01-17T23:48:17.209Z,90366.81
2023-01-17T23:50:45.844Z,90366.03
2023-01-17T23:53:24.079Z,90356.34
2023-01-17T23:55:55.413Z,90353.75
2023-01-17T23:58:25.919Z,90363.91
